CanjetBLOCKVirtuelBLOCKQcBLOCKBLOCKBLOCKBLOCKBLOCKBLOCKBLOCKBLOCKBLOCKBLOCKBLOCKvolsBLOCKavecBLOCKFS-kACARS2020-04-06BLOCK05colon44pm

volsBLOCKBLOCKBLOCKBLOCKBLOCKpilotesBLOCKBLOCKBLOCKBLOCKBLOCKBLOCKBLOCKBLOCKtypeBLOCKBLOCKdepBLOCKBLOCKarrBLOCKBLOCKBLOCKBLOCKBLOCKaltBLOCKBLOCKBLOCKBLOCKBLOCKgsBLOCKBLOCKBLOCKBLOCKstatut

CJA9999StephaneBLOCKGB738CYVR-MMSD0ft10ktsarrived
cja9999LouisBLOCKBB738CYXX-CYXT0ft0ktsarrived
cja9999Jean-PierreBLOCKAB738CYOW-KDCA0ft0ktsarrived
CJA9999AndréBLOCKLB738KDCA-MMMX0ft0ktsarrived
cja9999PierreBLOCKBB737CYUL-KRSW0ft8ktsarrived
CJA9999RochBLOCKJB788CYUL-KORD0ft0ktsarrived
CJA9999PierreBLOCKDC750CYXT-CYXY0ft0ktsarrived




BLOCKAppuyerBLOCKsurBLOCKF5BLOCKpourBLOCKactualiserBLOCKBLOCKBLOCKMiseBLOCKaBLOCKjourcolonBLOCK17colon44colon36pmCanjetBLOCKvirtuelBLOCKQC

Vols du mois

Publié par Michel Ayotte le 2020-04-01

Canjetvirtuel-Québec est fière de ses 16 pilotes.

Ce mois-ci, nous avons dépassé le record des vols depuis la fondation de la V.A. 

215 vols inscrits avec des profits de 96 millions.

Bravo à tous et merci de faire partie de cette belle famille.

Ça va bien aller !           

 

Vous trouverez votre place comme pilote chez nous!


Fly-in

Publié par Michel Ayotte le 2020-03-29

Canjetvirtuel-Québec a le plaisir de vous proposez un Fly-in Lundi le 6 Avril à 18h30

Le vol est de Kuujjuaq à Québec. Plan de vol (CYVP YKL V39 YBC YRI V316 CYQB)

Bienvenue sur Vatsim.

Si vous connaissez d'autres pilotes de cie Virtuel passer le message. Ils sont tous bienvenues.

Surveillez votre courriel...

Bon vol à tous.

 

Un merci spécial à Stéphane Gaouette pour son initiative et son implication.

Vous trouverez votre place comme pilote chez nous!


Tour du Monde

Publié par Michel Ayotte le 2020-03-05

Canjetvirtuel-Québec a le plaisir de vous proposer 20 vols pour le tour du Monde des capitales.

Vous gérez vos vols avec Kacar. Il n'y a pas de limite de temps.

Vous pouvez être sur Vatsim ou pas.

Surveillez vos courriels pour les 15 vols.

Bon vol à tous.

 

Encore une fois,un merci spécial à Stéphane Gaouette pour son initiative et son implication.

Vous trouverez votre place comme pilote chez nous!


Microsoft flight sim 2020

Publié par Yvan Roy le 2019-06-25

 

Microsoft flight simulator 2020 encore plus fort sera disponible pour votre PC au début 2020 .

 

https://www.flightsimulator.com/
 

                                                   

 




Bienvenue chez Canjetvirtuel-Q

Publié par Michel Ayotte le 2013-06-14

 

Canjetvirtuel-Québec est une compagnie aérienne virtuelle qui a été fondée par 2 passionnés de la simulation de vol.

Elle est opérée avec les Boeing 737. Exceptionnelement et pour votre plaisir les Boeing 747,757,767 et 777 sont autorisés pour des vols de plus de 1,5 heure.

Ces appareils pouvant faire des vols cargos ou des vols passagers,que ce soit au Canada, Europe, États-Unis, Mexique et Caraïbes.

Vous trouverez votre place comme pilote chez nous!



Avis

Aux fins de la simulation de vol seulement. CanjetVirtuel Québec n'est en aucun cas affilié avec n'importe quelle compagnie aérienne du monde réel. CanjetVirtuel Québec est un site √† but non lucratif gérée par des amateurs de simulation de vol. Toutes les images sont la propriété exclusive de leurs propriétaires respectifs.
| propulsé par phpVMS, ¬© 2013-2019.

Notice

For flight simulation purposes only. CanjetVirtuel Quebec is in no way affiliated with any real world airline. CanjetVirtuel Quebec is a non-profit site run by flight simulation enthusiasts. All images are the sole property of their respective owners.
| powered by phpVMS, © 2013-2019.

Affiliations

Vatsim

Les statistiques du site

Nombre de pilotes: 16
Total des vols effectués: 5709
Trajets disponibles: 545
Passagers transportés: 959098
Total des heures de vol: 18183
Distance totale (NM): 7088538
Pilotes en ligne: 2

Nouvelles

Vols du mois
04/01/2020
Fly-in
03/29/2020
Tour du Monde
03/05/2020
Microsoft flight sim 2020
06/25/2019
Bienvenue chez Canjetvirtuel-Q
06/14/2013

METAR

CYHZ 062100Z 29019G24KT 15SM FEW025 10/M08 A2965 RMK SC1 SC TR SLP045

CYQB 062100Z 27015G27KT 250V310 30SM FEW035 BKN080 08/M08 A2977 RMK SC1AC6 CU ASOCTD VIRGA SLP087

CYUL 062100Z 27018G27KT 30SM SCT070 BKN240 13/M08 A2988 RMK CU3CI4 SLP120

CYYZ 062130Z 16009KT 090V170 15SM BKN120 BKN260 13/M00 A3000 RMK AC5CI1 WSHFT 2123 SLP164